sensor_id;sensor_type;location;lat;lon;timestamp;P1;durP1;ratioP1;P2;durP2;ratioP2
71253;SDS011;59019;47.638;18.966;2023-09-19T00:00:34;14.17;;;6.40;;
71253;SDS011;59019;47.638;18.966;2023-09-19T00:03:00;13.47;;;6.47;;
71253;SDS011;59019;47.638;18.966;2023-09-19T00:05:27;11.45;;;6.15;;
71253;SDS011;59019;47.638;18.966;2023-09-19T00:07:55;11.30;;;6.18;;
71253;SDS011;59019;47.638;18.966;2023-09-19T00:10:24;12.38;;;6.60;;
71253;SDS011;59019;47.638;18.966;2023-09-19T00:12:52;12.57;;;6.57;;
71253;SDS011;59019;47.638;18.966;2023-09-19T00:15:22;10.75;;;6.20;;
71253;SDS011;59019;47.638;18.966;2023-09-19T00:17:48;12.45;;;6.38;;
71253;SDS011;59019;47.638;18.966;2023-09-19T00:20:14;10.63;;;6.20;;
71253;SDS011;59019;47.638;18.966;2023-09-19T00:22:42;14.40;;;6.70;;
71253;SDS011;59019;47.638;18.966;2023-09-19T00:25:11;14.30;;;6.60;;
71253;SDS011;59019;47.638;18.966;2023-09-19T00:27:37;12.75;;;6.70;;
71253;SDS011;59019;47.638;18.966;2023-09-19T00:30:08;12.93;;;6.75;;
71253;SDS011;59019;47.638;18.966;2023-09-19T00:32:40;12.93;;;7.07;;
71253;SDS011;59019;47.638;18.966;2023-09-19T00:35:06;13.57;;;7.10;;
71253;SDS011;59019;47.638;18.966;2023-09-19T00:37:35;12.90;;;7.07;;
71253;SDS011;59019;47.638;18.966;2023-09-19T00:40:03;11.63;;;7.03;;
71253;SDS011;59019;47.638;18.966;2023-09-19T00:42:30;13.15;;;6.75;;
71253;SDS011;59019;47.638;18.966;2023-09-19T00:44:56;14.73;;;7.30;;
71253;SDS011;59019;47.638;18.966;2023-09-19T00:47:30;11.75;;;6.80;;
71253;SDS011;59019;47.638;18.966;2023-09-19T00:49:56;13.27;;;7.10;;
71253;SDS011;59019;47.638;18.966;2023-09-19T00:52:22;11.85;;;6.78;;
71253;SDS011;59019;47.638;18.966;2023-09-19T00:54:48;13.10;;;7.00;;
71253;SDS011;59019;47.638;18.966;2023-09-19T00:57:17;14.30;;;7.10;;
71253;SDS011;59019;47.638;18.966;2023-09-19T00:59:44;12.77;;;7.07;;
71253;SDS011;59019;47.638;18.966;2023-09-19T01:02:13;12.57;;;7.43;;
71253;SDS011;59019;47.638;18.966;2023-09-19T01:04:40;13.27;;;7.07;;
71253;SDS011;59019;47.638;18.966;2023-09-19T01:07:06;13.20;;;7.28;;
71253;SDS011;59019;47.638;18.966;2023-09-19T01:09:33;12.32;;;7.25;;
71253;SDS011;59019;47.638;18.966;2023-09-19T01:12:01;11.57;;;7.00;;
71253;SDS011;59019;47.638;18.966;2023-09-19T01:14:31;12.10;;;6.85;;
71253;SDS011;59019;47.638;18.966;2023-09-19T01:17:09;12.55;;;7.00;;
71253;SDS011;59019;47.638;18.966;2023-09-19T01:22:52;14.98;;;7.38;;
71253;SDS011;59019;47.638;18.966;2023-09-19T01:31:01;13.35;;;7.68;;
71253;SDS011;59019;47.638;18.966;2023-09-19T01:33:28;12.07;;;7.15;;
71253;SDS011;59019;47.638;18.966;2023-09-19T01:36:16;12.25;;;7.45;;
71253;SDS011;59019;47.638;18.966;2023-09-19T01:38:42;12.48;;;7.30;;
71253;SDS011;59019;47.638;18.966;2023-09-19T01:41:10;13.93;;;7.43;;
71253;SDS011;59019;47.638;18.966;2023-09-19T01:43:41;14.82;;;7.70;;
71253;SDS011;59019;47.638;18.966;2023-09-19T01:46:12;13.18;;;7.53;;
71253;SDS011;59019;47.638;18.966;2023-09-19T01:54:16;12.85;;;7.70;;
71253;SDS011;59019;47.638;18.966;2023-09-19T01:59:35;12.77;;;7.13;;
71253;SDS011;59019;47.638;18.966;2023-09-19T02:02:06;13.00;;;7.20;;
71253;SDS011;59019;47.638;18.966;2023-09-19T02:04:33;13.68;;;7.65;;
71253;SDS011;59019;47.638;18.966;2023-09-19T02:07:02;14.60;;;7.45;;
71253;SDS011;59019;47.638;18.966;2023-09-19T02:09:30;14.43;;;7.20;;
71253;SDS011;59019;47.638;18.966;2023-09-19T02:11:58;11.80;;;7.30;;
71253;SDS011;59019;47.638;18.966;2023-09-19T02:14:24;15.18;;;7.65;;
71253;SDS011;59019;47.638;18.966;2023-09-19T02:16:49;14.93;;;7.60;;
71253;SDS011;59019;47.638;18.966;2023-09-19T02:19:15;14.38;;;7.55;;
71253;SDS011;59019;47.638;18.966;2023-09-19T02:21:41;13.25;;;7.60;;
71253;SDS011;59019;47.638;18.966;2023-09-19T02:24:07;16.07;;;7.20;;
71253;SDS011;59019;47.638;18.966;2023-09-19T02:26:33;12.43;;;7.53;;
71253;SDS011;59019;47.638;18.966;2023-09-19T02:29:01;16.23;;;7.83;;
71253;SDS011;59019;47.638;18.966;2023-09-19T02:31:30;13.50;;;7.65;;
71253;SDS011;59019;47.638;18.966;2023-09-19T02:33:56;12.50;;;7.68;;
71253;SDS011;59019;47.638;18.966;2023-09-19T02:36:21;14.47;;;7.70;;
71253;SDS011;59019;47.638;18.966;2023-09-19T02:38:51;17.47;;;7.90;;
71253;SDS011;59019;47.638;18.966;2023-09-19T02:41:17;16.48;;;7.85;;
71253;SDS011;59019;47.638;18.966;2023-09-19T02:43:42;14.77;;;7.80;;
71253;SDS011;59019;47.638;18.966;2023-09-19T02:46:08;15.20;;;7.47;;
71253;SDS011;59019;47.638;18.966;2023-09-19T02:48:34;14.15;;;7.57;;
71253;SDS011;59019;47.638;18.966;2023-09-19T02:51:03;15.88;;;7.45;;
71253;SDS011;59019;47.638;18.966;2023-09-19T02:53:30;13.93;;;7.63;;
71253;SDS011;59019;47.638;18.966;2023-09-19T02:55:57;13.50;;;7.53;;
71253;SDS011;59019;47.638;18.966;2023-09-19T02:58:22;13.53;;;7.23;;
71253;SDS011;59019;47.638;18.966;2023-09-19T03:00:50;14.15;;;7.82;;
71253;SDS011;59019;47.638;18.966;2023-09-19T03:03:16;12.63;;;7.60;;
71253;SDS011;59019;47.638;18.966;2023-09-19T03:05:42;14.35;;;7.80;;
71253;SDS011;59019;47.638;18.966;2023-09-19T03:08:12;12.65;;;7.57;;
71253;SDS011;59019;47.638;18.966;2023-09-19T03:10:40;14.95;;;7.38;;
71253;SDS011;59019;47.638;18.966;2023-09-19T03:13:05;16.35;;;7.90;;
71253;SDS011;59019;47.638;18.966;2023-09-19T03:15:34;14.63;;;7.80;;
71253;SDS011;59019;47.638;18.966;2023-09-19T03:18:06;13.52;;;7.53;;
71253;SDS011;59019;47.638;18.966;2023-09-19T03:20:31;13.97;;;7.60;;
71253;SDS011;59019;47.638;18.966;2023-09-19T03:22:57;16.77;;;7.85;;
71253;SDS011;59019;47.638;18.966;2023-09-19T03:25:23;15.20;;;7.70;;
71253;SDS011;59019;47.638;18.966;2023-09-19T03:27:52;13.57;;;7.85;;
71253;SDS011;59019;47.638;18.966;2023-09-19T03:30:17;14.47;;;7.90;;
71253;SDS011;59019;47.638;18.966;2023-09-19T03:32:44;14.15;;;7.93;;
71253;SDS011;59019;47.638;18.966;2023-09-19T03:35:11;13.32;;;7.68;;
71253;SDS011;59019;47.638;18.966;2023-09-19T03:37:39;14.20;;;7.38;;
71253;SDS011;59019;47.638;18.966;2023-09-19T03:40:08;14.25;;;7.60;;
71253;SDS011;59019;47.638;18.966;2023-09-19T03:42:37;14.37;;;7.50;;
71253;SDS011;59019;47.638;18.966;2023-09-19T03:45:08;16.10;;;7.00;;
71253;SDS011;59019;47.638;18.966;2023-09-19T03:47:40;13.82;;;6.97;;
71253;SDS011;59019;47.638;18.966;2023-09-19T03:50:06;15.18;;;7.60;;
71253;SDS011;59019;47.638;18.966;2023-09-19T03:52:33;15.52;;;7.65;;
71253;SDS011;59019;47.638;18.966;2023-09-19T03:54:59;11.75;;;6.40;;
71253;SDS011;59019;47.638;18.966;2023-09-19T03:57:26;14.65;;;5.95;;
71253;SDS011;59019;47.638;18.966;2023-09-19T03:59:52;12.40;;;5.55;;
71253;SDS011;59019;47.638;18.966;2023-09-19T04:02:18;10.63;;;5.60;;
71253;SDS011;59019;47.638;18.966;2023-09-19T04:04:48;12.17;;;5.60;;
71253;SDS011;59019;47.638;18.966;2023-09-19T04:07:15;9.43;;;5.22;;
71253;SDS011;59019;47.638;18.966;2023-09-19T04:09:41;11.00;;;5.50;;
71253;SDS011;59019;47.638;18.966;2023-09-19T04:12:07;8.88;;;4.35;;
71253;SDS011;59019;47.638;18.966;2023-09-19T04:14:35;8.38;;;3.58;;
71253;SDS011;59019;47.638;18.966;2023-09-19T04:17:01;8.00;;;2.80;;
71253;SDS011;59019;47.638;18.966;2023-09-19T04:19:28;5.63;;;2.13;;
71253;SDS011;59019;47.638;18.966;2023-09-19T04:21:53;5.70;;;2.00;;
71253;SDS011;59019;47.638;18.966;2023-09-19T04:24:19;5.67;;;2.07;;
71253;SDS011;59019;47.638;18.966;2023-09-19T04:26:44;5.90;;;1.77;;
71253;SDS011;59019;47.638;18.966;2023-09-19T04:29:10;4.50;;;1.65;;
71253;SDS011;59019;47.638;18.966;2023-09-19T04:31:38;5.47;;;1.45;;
71253;SDS011;59019;47.638;18.966;2023-09-19T04:34:06;4.53;;;1.30;;
71253;SDS011;59019;47.638;18.966;2023-09-19T04:36:36;4.65;;;1.30;;
71253;SDS011;59019;47.638;18.966;2023-09-19T04:39:02;4.07;;;1.30;;
71253;SDS011;59019;47.638;18.966;2023-09-19T04:41:32;3.93;;;1.30;;
71253;SDS011;59019;47.638;18.966;2023-09-19T04:43:59;4.75;;;1.30;;
71253;SDS011;59019;47.638;18.966;2023-09-19T04:46:25;5.03;;;1.37;;
71253;SDS011;59019;47.638;18.966;2023-09-19T04:48:50;3.70;;;1.17;;
71253;SDS011;59019;47.638;18.966;2023-09-19T04:51:16;4.03;;;1.20;;
71253;SDS011;59019;47.638;18.966;2023-09-19T04:53:43;5.40;;;1.08;;
71253;SDS011;59019;47.638;18.966;2023-09-19T04:56:09;3.33;;;1.00;;
71253;SDS011;59019;47.638;18.966;2023-09-19T04:58:34;3.83;;;1.10;;
71253;SDS011;59019;47.638;18.966;2023-09-19T05:01:00;4.07;;;1.08;;
71253;SDS011;59019;47.638;18.966;2023-09-19T05:03:27;3.23;;;0.90;;
71253;SDS011;59019;47.638;18.966;2023-09-19T05:05:52;3.20;;;1.03;;
71253;SDS011;59019;47.638;18.966;2023-09-19T05:08:18;3.15;;;0.90;;
71253;SDS011;59019;47.638;18.966;2023-09-19T05:10:43;4.27;;;1.07;;
71253;SDS011;59019;47.638;18.966;2023-09-19T05:13:10;4.40;;;1.10;;
71253;SDS011;59019;47.638;18.966;2023-09-19T05:15:37;3.95;;;1.00;;
71253;SDS011;59019;47.638;18.966;2023-09-19T05:18:02;3.42;;;1.00;;
71253;SDS011;59019;47.638;18.966;2023-09-19T05:20:28;5.27;;;0.90;;
71253;SDS011;59019;47.638;18.966;2023-09-19T05:23:03;2.90;;;0.80;;
71253;SDS011;59019;47.638;18.966;2023-09-19T05:25:36;3.60;;;1.00;;
71253;SDS011;59019;47.638;18.966;2023-09-19T05:28:04;2.92;;;0.80;;
71253;SDS011;59019;47.638;18.966;2023-09-19T05:30:31;2.80;;;0.60;;
71253;SDS011;59019;47.638;18.966;2023-09-19T05:32:57;3.10;;;0.70;;
71253;SDS011;59019;47.638;18.966;2023-09-19T05:35:23;2.67;;;0.70;;
71253;SDS011;59019;47.638;18.966;2023-09-19T05:37:50;3.70;;;0.80;;
71253;SDS011;59019;47.638;18.966;2023-09-19T05:40:19;2.40;;;0.60;;
71253;SDS011;59019;47.638;18.966;2023-09-19T05:42:45;2.85;;;0.70;;
71253;SDS011;59019;47.638;18.966;2023-09-19T05:45:11;2.95;;;0.77;;
71253;SDS011;59019;47.638;18.966;2023-09-19T05:47:41;2.83;;;0.70;;
71253;SDS011;59019;47.638;18.966;2023-09-19T05:50:08;3.33;;;0.80;;
71253;SDS011;59019;47.638;18.966;2023-09-19T05:52:37;3.17;;;0.80;;
71253;SDS011;59019;47.638;18.966;2023-09-19T05:55:06;3.00;;;0.80;;
71253;SDS011;59019;47.638;18.966;2023-09-19T05:57:35;3.15;;;0.80;;
71253;SDS011;59019;47.638;18.966;2023-09-19T06:00:04;3.00;;;0.80;;
71253;SDS011;59019;47.638;18.966;2023-09-19T06:02:36;3.80;;;0.73;;
71253;SDS011;59019;47.638;18.966;2023-09-19T06:05:03;2.90;;;0.90;;
71253;SDS011;59019;47.638;18.966;2023-09-19T06:07:31;3.50;;;0.93;;
71253;SDS011;59019;47.638;18.966;2023-09-19T06:10:02;2.80;;;0.90;;
71253;SDS011;59019;47.638;18.966;2023-09-19T06:12:38;3.47;;;0.85;;
71253;SDS011;59019;47.638;18.966;2023-09-19T06:15:04;3.33;;;0.80;;
71253;SDS011;59019;47.638;18.966;2023-09-19T06:17:31;2.92;;;0.85;;
71253;SDS011;59019;47.638;18.966;2023-09-19T06:19:56;3.50;;;0.90;;
71253;SDS011;59019;47.638;18.966;2023-09-19T06:22:22;3.50;;;0.90;;
71253;SDS011;59019;47.638;18.966;2023-09-19T06:24:49;2.80;;;0.90;;
71253;SDS011;59019;47.638;18.966;2023-09-19T06:27:15;2.90;;;0.90;;
71253;SDS011;59019;47.638;18.966;2023-09-19T06:29:40;3.33;;;0.80;;
71253;SDS011;59019;47.638;18.966;2023-09-19T06:32:09;2.80;;;0.90;;
71253;SDS011;59019;47.638;18.966;2023-09-19T06:34:35;3.05;;;0.90;;
71253;SDS011;59019;47.638;18.966;2023-09-19T06:37:02;3.15;;;0.93;;
71253;SDS011;59019;47.638;18.966;2023-09-19T06:39:28;3.95;;;1.00;;
71253;SDS011;59019;47.638;18.966;2023-09-19T06:41:53;3.33;;;0.90;;
71253;SDS011;59019;47.638;18.966;2023-09-19T06:44:19;2.90;;;0.80;;
71253;SDS011;59019;47.638;18.966;2023-09-19T06:46:49;4.07;;;0.90;;
71253;SDS011;59019;47.638;18.966;2023-09-19T06:49:17;4.10;;;0.90;;
71253;SDS011;59019;47.638;18.966;2023-09-19T06:51:43;3.72;;;0.77;;
71253;SDS011;59019;47.638;18.966;2023-09-19T06:54:09;3.17;;;0.70;;
71253;SDS011;59019;47.638;18.966;2023-09-19T06:56:35;2.67;;;0.60;;
71253;SDS011;59019;47.638;18.966;2023-09-19T06:59:01;2.63;;;0.60;;
71253;SDS011;59019;47.638;18.966;2023-09-19T07:01:28;2.90;;;0.50;;
71253;SDS011;59019;47.638;18.966;2023-09-19T07:03:54;2.23;;;0.53;;
71253;SDS011;59019;47.638;18.966;2023-09-19T07:06:19;2.53;;;0.55;;
71253;SDS011;59019;47.638;18.966;2023-09-19T07:08:45;2.27;;;0.57;;
71253;SDS011;59019;47.638;18.966;2023-09-19T07:11:10;2.90;;;0.50;;
71253;SDS011;59019;47.638;18.966;2023-09-19T07:13:37;2.97;;;0.60;;
71253;SDS011;59019;47.638;18.966;2023-09-19T07:16:04;2.20;;;0.50;;
71253;SDS011;59019;47.638;18.966;2023-09-19T07:18:29;3.47;;;0.60;;
71253;SDS011;59019;47.638;18.966;2023-09-19T07:20:57;2.50;;;0.60;;
71253;SDS011;59019;47.638;18.966;2023-09-19T07:23:26;2.75;;;0.60;;
71253;SDS011;59019;47.638;18.966;2023-09-19T07:25:51;2.90;;;0.60;;
71253;SDS011;59019;47.638;18.966;2023-09-19T07:28:17;2.97;;;0.80;;
71253;SDS011;59019;47.638;18.966;2023-09-19T07:30:43;2.70;;;0.70;;
71253;SDS011;59019;47.638;18.966;2023-09-19T07:33:09;3.83;;;0.90;;
71253;SDS011;59019;47.638;18.966;2023-09-19T07:35:38;5.30;;;0.88;;
71253;SDS011;59019;47.638;18.966;2023-09-19T07:38:07;3.37;;;1.00;;
71253;SDS011;59019;47.638;18.966;2023-09-19T07:40:33;3.72;;;0.90;;
71253;SDS011;59019;47.638;18.966;2023-09-19T07:42:59;4.33;;;1.00;;
71253;SDS011;59019;47.638;18.966;2023-09-19T07:45:28;3.90;;;1.10;;
71253;SDS011;59019;47.638;18.966;2023-09-19T07:47:55;3.60;;;1.00;;
71253;SDS011;59019;47.638;18.966;2023-09-19T07:50:20;3.72;;;0.98;;
71253;SDS011;59019;47.638;18.966;2023-09-19T07:52:46;3.37;;;0.93;;
71253;SDS011;59019;47.638;18.966;2023-09-19T07:55:12;3.88;;;1.20;;
71253;SDS011;59019;47.638;18.966;2023-09-19T07:57:42;3.63;;;1.10;;
71253;SDS011;59019;47.638;18.966;2023-09-19T08:00:08;3.83;;;0.90;;
71253;SDS011;59019;47.638;18.966;2023-09-19T08:02:38;3.95;;;1.05;;
71253;SDS011;59019;47.638;18.966;2023-09-19T08:05:07;3.65;;;1.10;;
71253;SDS011;59019;47.638;18.966;2023-09-19T08:07:40;4.37;;;1.10;;
71253;SDS011;59019;47.638;18.966;2023-09-19T08:10:06;3.10;;;1.10;;
71253;SDS011;59019;47.638;18.966;2023-09-19T08:12:35;3.93;;;1.20;;
71253;SDS011;59019;47.638;18.966;2023-09-19T08:15:01;4.33;;;1.20;;
71253;SDS011;59019;47.638;18.966;2023-09-19T08:17:28;3.70;;;1.13;;
71253;SDS011;59019;47.638;18.966;2023-09-19T08:19:53;4.30;;;1.10;;
71253;SDS011;59019;47.638;18.966;2023-09-19T08:22:19;3.15;;;1.20;;
71253;SDS011;59019;47.638;18.966;2023-09-19T08:24:45;3.97;;;1.38;;
71253;SDS011;59019;47.638;18.966;2023-09-19T08:27:11;4.82;;;1.23;;
71253;SDS011;59019;47.638;18.966;2023-09-19T08:29:37;4.68;;;1.20;;
71253;SDS011;59019;47.638;18.966;2023-09-19T08:32:04;5.13;;;1.20;;
71253;SDS011;59019;47.638;18.966;2023-09-19T08:34:30;4.07;;;1.30;;
71253;SDS011;59019;47.638;18.966;2023-09-19T08:36:58;5.20;;;1.30;;
71253;SDS011;59019;47.638;18.966;2023-09-19T08:39:26;4.38;;;1.33;;
71253;SDS011;59019;47.638;18.966;2023-09-19T08:41:58;4.80;;;1.20;;
71253;SDS011;59019;47.638;18.966;2023-09-19T08:44:25;4.37;;;1.30;;
71253;SDS011;59019;47.638;18.966;2023-09-19T08:46:59;4.35;;;1.52;;
71253;SDS011;59019;47.638;18.966;2023-09-19T08:49:36;3.90;;;1.40;;
71253;SDS011;59019;47.638;18.966;2023-09-19T08:52:22;4.03;;;1.27;;
71253;SDS011;59019;47.638;18.966;2023-09-19T08:54:52;4.68;;;1.30;;
71253;SDS011;59019;47.638;18.966;2023-09-19T08:57:18;4.10;;;1.30;;
71253;SDS011;59019;47.638;18.966;2023-09-19T08:59:49;3.60;;;1.20;;
71253;SDS011;59019;47.638;18.966;2023-09-19T09:02:16;4.00;;;1.30;;
71253;SDS011;59019;47.638;18.966;2023-09-19T09:04:44;4.50;;;1.20;;
71253;SDS011;59019;47.638;18.966;2023-09-19T09:07:12;3.80;;;1.20;;
71253;SDS011;59019;47.638;18.966;2023-09-19T09:09:38;5.10;;;1.20;;
71253;SDS011;59019;47.638;18.966;2023-09-19T09:12:16;3.47;;;1.20;;
71253;SDS011;59019;47.638;18.966;2023-09-19T09:14:45;4.40;;;1.23;;
71253;SDS011;59019;47.638;18.966;2023-09-19T09:17:13;4.10;;;1.20;;
71253;SDS011;59019;47.638;18.966;2023-09-19T09:19:39;5.93;;;1.50;;
71253;SDS011;59019;47.638;18.966;2023-09-19T09:22:09;3.70;;;1.20;;
71253;SDS011;59019;47.638;18.966;2023-09-19T09:24:36;4.53;;;1.40;;
71253;SDS011;59019;47.638;18.966;2023-09-19T09:27:05;3.58;;;1.30;;
71253;SDS011;59019;47.638;18.966;2023-09-19T09:29:46;4.47;;;1.40;;
71253;SDS011;59019;47.638;18.966;2023-09-19T09:32:30;4.30;;;1.30;;
71253;SDS011;59019;47.638;18.966;2023-09-19T09:34:59;3.83;;;1.20;;
71253;SDS011;59019;47.638;18.966;2023-09-19T09:37:26;3.38;;;1.13;;
71253;SDS011;59019;47.638;18.966;2023-09-19T09:39:59;4.47;;;1.17;;
71253;SDS011;59019;47.638;18.966;2023-09-19T09:42:42;3.65;;;1.00;;
71253;SDS011;59019;47.638;18.966;2023-09-19T09:45:15;4.45;;;1.35;;
71253;SDS011;59019;47.638;18.966;2023-09-19T09:47:59;4.50;;;1.20;;
71253;SDS011;59019;47.638;18.966;2023-09-19T09:50:32;4.15;;;1.45;;
71253;SDS011;59019;47.638;18.966;2023-09-19T09:53:21;4.30;;;1.40;;
71253;SDS011;59019;47.638;18.966;2023-09-19T09:56:06;4.18;;;1.35;;
71253;SDS011;59019;47.638;18.966;2023-09-19T09:58:52;4.93;;;1.40;;
71253;SDS011;59019;47.638;18.966;2023-09-19T10:01:20;4.20;;;1.38;;
71253;SDS011;59019;47.638;18.966;2023-09-19T10:03:49;4.78;;;2.03;;
71253;SDS011;59019;47.638;18.966;2023-09-19T10:06:17;4.68;;;2.30;;
71253;SDS011;59019;47.638;18.966;2023-09-19T10:12:02;5.20;;;2.70;;
71253;SDS011;59019;47.638;18.966;2023-09-19T10:14:30;5.63;;;3.20;;
71253;SDS011;59019;47.638;18.966;2023-09-19T10:17:00;4.93;;;3.30;;
71253;SDS011;59019;47.638;18.966;2023-09-19T10:19:36;6.83;;;3.40;;
71253;SDS011;59019;47.638;18.966;2023-09-19T10:22:11;5.28;;;3.13;;
71253;SDS011;59019;47.638;18.966;2023-09-19T10:24:41;5.30;;;3.20;;
71253;SDS011;59019;47.638;18.966;2023-09-19T10:27:10;5.28;;;2.90;;
71253;SDS011;59019;47.638;18.966;2023-09-19T10:29:36;5.07;;;3.03;;
71253;SDS011;59019;47.638;18.966;2023-09-19T10:32:04;5.72;;;2.70;;
71253;SDS011;59019;47.638;18.966;2023-09-19T10:34:33;5.60;;;2.60;;
71253;SDS011;59019;47.638;18.966;2023-09-19T10:37:00;5.65;;;2.55;;
71253;SDS011;59019;47.638;18.966;2023-09-19T10:39:30;5.30;;;2.40;;
71253;SDS011;59019;47.638;18.966;2023-09-19T10:41:57;4.60;;;2.28;;
71253;SDS011;59019;47.638;18.966;2023-09-19T10:44:31;5.47;;;2.30;;
71253;SDS011;59019;47.638;18.966;2023-09-19T10:46:58;5.35;;;1.90;;
71253;SDS011;59019;47.638;18.966;2023-09-19T10:49:24;4.10;;;2.20;;
71253;SDS011;59019;47.638;18.966;2023-09-19T10:51:52;5.37;;;1.90;;
71253;SDS011;59019;47.638;18.966;2023-09-19T10:54:24;4.13;;;1.90;;
71253;SDS011;59019;47.638;18.966;2023-09-19T10:56:54;4.70;;;1.90;;
71253;SDS011;59019;47.638;18.966;2023-09-19T10:59:23;5.07;;;1.85;;
71253;SDS011;59019;47.638;18.966;2023-09-19T11:07:00;4.80;;;1.63;;
71253;SDS011;59019;47.638;18.966;2023-09-19T11:15:11;6.03;;;1.75;;
71253;SDS011;59019;47.638;18.966;2023-09-19T11:26:41;4.57;;;1.45;;
71253;SDS011;59019;47.638;18.966;2023-09-19T11:31:57;3.92;;;1.13;;
71253;SDS011;59019;47.638;18.966;2023-09-19T11:37:02;4.03;;;1.10;;
71253;SDS011;59019;47.638;18.966;2023-09-19T11:39:29;4.10;;;1.10;;
71253;SDS011;59019;47.638;18.966;2023-09-19T11:41:55;4.32;;;1.30;;
71253;SDS011;59019;47.638;18.966;2023-09-19T11:44:31;3.60;;;1.00;;
71253;SDS011;59019;47.638;18.966;2023-09-19T11:47:03;4.03;;;1.00;;
71253;SDS011;59019;47.638;18.966;2023-09-19T11:49:30;3.38;;;1.00;;
71253;SDS011;59019;47.638;18.966;2023-09-19T11:51:58;3.95;;;0.93;;
71253;SDS011;59019;47.638;18.966;2023-09-19T11:54:31;5.18;;;1.20;;
71253;SDS011;59019;47.638;18.966;2023-09-19T11:56:58;5.05;;;1.10;;
71253;SDS011;59019;47.638;18.966;2023-09-19T11:59:25;3.53;;;1.00;;
71253;SDS011;59019;47.638;18.966;2023-09-19T12:01:56;4.25;;;1.20;;
71253;SDS011;59019;47.638;18.966;2023-09-19T12:04:35;3.83;;;1.17;;
71253;SDS011;59019;47.638;18.966;2023-09-19T12:07:04;3.60;;;1.20;;
71253;SDS011;59019;47.638;18.966;2023-09-19T12:09:48;4.30;;;1.25;;
71253;SDS011;59019;47.638;18.966;2023-09-19T12:12:27;4.60;;;1.25;;
71253;SDS011;59019;47.638;18.966;2023-09-19T12:14:55;3.78;;;1.10;;
71253;SDS011;59019;47.638;18.966;2023-09-19T12:17:39;4.60;;;1.42;;
71253;SDS011;59019;47.638;18.966;2023-09-19T12:20:09;4.13;;;1.30;;
71253;SDS011;59019;47.638;18.966;2023-09-19T12:22:42;5.90;;;1.88;;
71253;SDS011;59019;47.638;18.966;2023-09-19T12:25:10;4.38;;;1.60;;
71253;SDS011;59019;47.638;18.966;2023-09-19T12:27:46;3.83;;;1.50;;
71253;SDS011;59019;47.638;18.966;2023-09-19T12:30:14;4.00;;;1.70;;
71253;SDS011;59019;47.638;18.966;2023-09-19T12:32:43;4.78;;;1.77;;
71253;SDS011;59019;47.638;18.966;2023-09-19T12:35:09;5.40;;;1.70;;
71253;SDS011;59019;47.638;18.966;2023-09-19T12:37:51;5.85;;;1.85;;
71253;SDS011;59019;47.638;18.966;2023-09-19T12:40:20;5.22;;;1.60;;
71253;SDS011;59019;47.638;18.966;2023-09-19T12:42:53;4.65;;;1.92;;
71253;SDS011;59019;47.638;18.966;2023-09-19T12:45:27;5.60;;;1.90;;
71253;SDS011;59019;47.638;18.966;2023-09-19T12:51:03;4.03;;;1.70;;
71253;SDS011;59019;47.638;18.966;2023-09-19T12:53:31;4.50;;;2.00;;
71253;SDS011;59019;47.638;18.966;2023-09-19T12:55:59;4.50;;;1.80;;
71253;SDS011;59019;47.638;18.966;2023-09-19T12:58:25;4.95;;;1.83;;
71253;SDS011;59019;47.638;18.966;2023-09-19T13:00:51;5.17;;;1.50;;
71253;SDS011;59019;47.638;18.966;2023-09-19T13:05:59;3.90;;;1.70;;
71253;SDS011;59019;47.638;18.966;2023-09-19T13:08:38;3.70;;;1.63;;
71253;SDS011;59019;47.638;18.966;2023-09-19T13:11:09;4.80;;;1.80;;
71253;SDS011;59019;47.638;18.966;2023-09-19T13:14:21;4.20;;;1.83;;
71253;SDS011;59019;47.638;18.966;2023-09-19T13:19:42;4.43;;;1.75;;
71253;SDS011;59019;47.638;18.966;2023-09-19T13:25:10;4.30;;;1.75;;
71253;SDS011;59019;47.638;18.966;2023-09-19T13:27:43;4.55;;;1.70;;
71253;SDS011;59019;47.638;18.966;2023-09-19T13:30:10;5.30;;;1.80;;
71253;SDS011;59019;47.638;18.966;2023-09-19T13:32:38;5.53;;;1.80;;
71253;SDS011;59019;47.638;18.966;2023-09-19T13:35:05;4.47;;;1.70;;
71253;SDS011;59019;47.638;18.966;2023-09-19T13:37:34;4.40;;;1.77;;
71253;SDS011;59019;47.638;18.966;2023-09-19T13:40:15;4.55;;;1.83;;
71253;SDS011;59019;47.638;18.966;2023-09-19T13:42:41;4.43;;;1.90;;
71253;SDS011;59019;47.638;18.966;2023-09-19T13:45:07;4.22;;;1.60;;
71253;SDS011;59019;47.638;18.966;2023-09-19T13:47:36;3.83;;;1.70;;
71253;SDS011;59019;47.638;18.966;2023-09-19T13:50:03;4.57;;;1.60;;
71253;SDS011;59019;47.638;18.966;2023-09-19T13:52:32;4.45;;;1.60;;
71253;SDS011;59019;47.638;18.966;2023-09-19T13:54:58;4.53;;;1.60;;
71253;SDS011;59019;47.638;18.966;2023-09-19T13:57:24;4.38;;;1.50;;
71253;SDS011;59019;47.638;18.966;2023-09-19T13:59:51;4.13;;;1.60;;
71253;SDS011;59019;47.638;18.966;2023-09-19T14:02:17;4.38;;;1.73;;
71253;SDS011;59019;47.638;18.966;2023-09-19T14:04:47;5.45;;;1.58;;
71253;SDS011;59019;47.638;18.966;2023-09-19T14:07:12;4.60;;;1.63;;
71253;SDS011;59019;47.638;18.966;2023-09-19T14:09:40;5.15;;;1.70;;
71253;SDS011;59019;47.638;18.966;2023-09-19T14:12:08;4.83;;;1.53;;
71253;SDS011;59019;47.638;18.966;2023-09-19T14:14:37;3.80;;;1.45;;
71253;SDS011;59019;47.638;18.966;2023-09-19T14:17:23;5.80;;;1.77;;
71253;SDS011;59019;47.638;18.966;2023-09-19T14:20:09;5.03;;;1.50;;
71253;SDS011;59019;47.638;18.966;2023-09-19T14:22:57;5.60;;;1.65;;
71253;SDS011;59019;47.638;18.966;2023-09-19T14:25:47;4.60;;;1.50;;
71253;SDS011;59019;47.638;18.966;2023-09-19T14:28:33;4.30;;;1.50;;
71253;SDS011;59019;47.638;18.966;2023-09-19T14:31:19;3.83;;;1.60;;
71253;SDS011;59019;47.638;18.966;2023-09-19T14:33:57;3.80;;;1.47;;
71253;SDS011;59019;47.638;18.966;2023-09-19T14:36:24;4.50;;;1.60;;
71253;SDS011;59019;47.638;18.966;2023-09-19T14:38:52;5.30;;;1.40;;
71253;SDS011;59019;47.638;18.966;2023-09-19T14:41:22;3.65;;;1.40;;
71253;SDS011;59019;47.638;18.966;2023-09-19T14:43:48;3.63;;;1.35;;
71253;SDS011;59019;47.638;18.966;2023-09-19T14:46:14;4.60;;;1.42;;
71253;SDS011;59019;47.638;18.966;2023-09-19T14:48:40;4.18;;;1.40;;
71253;SDS011;59019;47.638;18.966;2023-09-19T14:51:06;4.30;;;1.50;;
71253;SDS011;59019;47.638;18.966;2023-09-19T14:53:34;4.90;;;1.30;;
71253;SDS011;59019;47.638;18.966;2023-09-19T14:56:04;4.53;;;1.30;;
71253;SDS011;59019;47.638;18.966;2023-09-19T14:58:33;5.00;;;1.58;;
71253;SDS011;59019;47.638;18.966;2023-09-19T15:01:02;4.27;;;1.30;;
71253;SDS011;59019;47.638;18.966;2023-09-19T15:03:31;4.43;;;1.25;;
71253;SDS011;59019;47.638;18.966;2023-09-19T15:06:04;4.10;;;1.25;;
71253;SDS011;59019;47.638;18.966;2023-09-19T15:08:46;4.00;;;1.20;;
71253;SDS011;59019;47.638;18.966;2023-09-19T15:11:18;3.38;;;1.30;;
71253;SDS011;59019;47.638;18.966;2023-09-19T15:13:45;3.83;;;1.17;;
71253;SDS011;59019;47.638;18.966;2023-09-19T15:16:12;4.00;;;1.15;;
71253;SDS011;59019;47.638;18.966;2023-09-19T15:18:39;3.67;;;1.17;;
71253;SDS011;59019;47.638;18.966;2023-09-19T15:21:07;3.88;;;1.30;;
71253;SDS011;59019;47.638;18.966;2023-09-19T15:23:36;3.88;;;1.10;;
71253;SDS011;59019;47.638;18.966;2023-09-19T15:26:06;4.00;;;1.23;;
71253;SDS011;59019;47.638;18.966;2023-09-19T15:28:42;3.70;;;1.10;;
71253;SDS011;59019;47.638;18.966;2023-09-19T15:31:08;4.33;;;1.33;;
71253;SDS011;59019;47.638;18.966;2023-09-19T15:33:37;4.20;;;1.20;;
71253;SDS011;59019;47.638;18.966;2023-09-19T15:36:07;3.90;;;1.30;;
71253;SDS011;59019;47.638;18.966;2023-09-19T15:41:24;3.77;;;1.30;;